Time;durP1;ratioP1;P1;durP2;ratioP2;P2;SDS_P1;SDS_P2;PMS_P1;PMS_P2;Temp;Humidity;BMP_temperature;BMP_pressure;BME280_temperature;BME280_humidity;BME280_pressure;Samples;Min_cycle;Max_cycle;Signal;HPM_P1;HPM_P2
2022/06/15 00:02:00;;;;;;;7.28;5.50;;;18.80;69.10;;;;;;5074997;28;20035;-11
2022/06/15 00:04:28;;;;;;;8.95;5.82;;;18.80;69.10;;;;;;5073308;28;20033;-10
2022/06/15 00:06:53;;;;;;;10.65;5.25;;;18.80;69.30;;;;;;5074888;28;20025;-11
2022/06/15 00:09:19;;;;;;;11.50;5.25;;;18.70;69.20;;;;;;5074523;28;20420;-11
2022/06/15 00:11:45;;;;;;;10.15;5.80;;;18.70;69.30;;;;;;5073304;28;20031;-11
2022/06/15 00:14:18;;;;;;;8.38;5.53;;;18.60;69.70;;;;;;5074431;28;20024;-10
2022/06/15 00:16:45;;;;;;;9.05;5.60;;;18.50;69.80;;;;;;5075149;28;20025;-10
2022/06/15 00:19:11;;;;;;;6.53;4.57;;;18.50;70.50;;;;;;5074355;28;20128;-11
2022/06/15 00:21:37;;;;;;;7.30;5.13;;;18.40;70.10;;;;;;5074309;28;20032;-11
2022/06/15 00:24:04;;;;;;;8.57;5.10;;;18.40;70.20;;;;;;5074106;28;20024;-12
2022/06/15 00:26:30;;;;;;;11.15;5.63;;;18.40;70.30;;;;;;5073982;28;20423;-11
2022/06/15 00:28:56;;;;;;;10.07;5.70;;;18.40;70.40;;;;;;5074874;28;20082;-11
2022/06/15 00:31:22;;;;;;;9.00;4.88;;;18.40;70.50;;;;;;5074477;28;20039;-12
2022/06/15 00:33:49;;;;;;;8.90;5.72;;;18.40;70.60;;;;;;5074074;28;20090;-11
2022/06/15 00:36:18;;;;;;;7.43;5.68;;;18.40;71.00;;;;;;5073923;28;20024;-12
2022/06/15 00:38:49;;;;;;;6.85;5.05;;;18.40;71.30;;;;;;5074285;28;20024;-11
2022/06/15 00:41:37;;;;;;;9.63;5.78;;;18.30;71.10;;;;;;5072700;28;20024;-12
2022/06/15 00:44:24;;;;;;;9.13;5.88;;;18.20;71.30;;;;;;5073603;28;20451;-11
2022/06/15 00:47:04;;;;;;;8.95;6.28;;;18.20;71.80;;;;;;5073821;28;20044;-12
2022/06/15 00:49:47;;;;;;;11.10;5.93;;;18.20;71.60;;;;;;5073539;28;20103;-12
2022/06/15 00:52:52;;;;;;;13.63;7.37;;;18.20;71.50;;;;;;5073730;28;20051;-12
2022/06/15 00:55:30;;;;;;;10.88;6.88;;;18.10;72.40;;;;;;5051515;28;20516;-11
2022/06/15 00:57:57;;;;;;;8.30;5.28;;;18.20;72.10;;;;;;5051717;28;20036;-11
2022/06/15 01:00:26;;;;;;;12.77;7.10;;;18.20;72.20;;;;;;5051320;28;20060;-11
2022/06/15 01:02:52;;;;;;;8.85;6.32;;;18.20;72.50;;;;;;5051499;28;20052;-12
2022/06/15 01:05:22;;;;;;;11.93;7.05;;;18.20;72.20;;;;;;5051572;28;20130;-12
2022/06/15 01:08:11;;;;;;;11.43;7.60;;;18.20;72.20;;;;;;5051506;28;20029;-12
2022/06/15 01:11:10;;;;;;;11.55;8.45;;;18.20;72.20;;;;;;5051627;28;20505;-11
2022/06/15 01:13:59;;;;;;;12.13;6.72;;;18.40;72.70;;;;;;5051422;28;20063;-11
2022/06/15 01:16:43;;;;;;;11.18;6.72;;;18.40;72.70;;;;;;5050886;28;20116;-11
2022/06/15 01:19:28;;;;;;;11.05;6.50;;;18.40;72.40;;;;;;5051272;28;20045;-11
2022/06/15 01:22:03;;;;;;;11.73;7.57;;;18.50;72.30;;;;;;5034570;28;20039;-12
2022/06/15 01:24:44;;;;;;;11.18;6.95;;;18.60;72.10;;;;;;5050753;28;20120;-11
2022/06/15 01:27:34;;;;;;;9.85;6.65;;;18.60;72.10;;;;;;5052022;28;20037;-11
2022/06/15 01:30:39;;;;;;;10.95;6.68;;;18.70;71.90;;;;;;5055146;28;20029;-11
2022/06/15 01:33:05;;;;;;;10.43;6.53;;;18.80;71.90;;;;;;5073201;28;20053;-11
2022/06/15 01:35:41;;;;;;;8.95;6.75;;;18.80;71.60;;;;;;5073122;28;20021;-11
2022/06/15 01:38:25;;;;;;;12.05;7.70;;;18.90;71.50;;;;;;5073448;28;20082;-10
2022/06/15 01:41:14;;;;;;;15.02;7.40;;;19.00;72.00;;;;;;5073042;28;20388;-12
2022/06/15 01:43:56;;;;;;;10.23;6.60;;;19.00;71.90;;;;;;5073265;28;20029;-12
2022/06/15 01:46:24;;;;;;;7.55;5.68;;;19.10;71.50;;;;;;5073104;28;20033;-11
2022/06/15 01:48:53;;;;;;;11.48;6.22;;;19.10;71.30;;;;;;5073030;28;20021;-12
2022/06/15 01:51:22;;;;;;;11.13;6.78;;;19.20;71.20;;;;;;5072820;28;20052;-11
2022/06/15 01:54:03;;;;;;;11.40;7.00;;;19.20;71.30;;;;;;5072902;28;20028;-11
2022/06/15 01:56:41;;;;;;;10.32;7.30;;;19.20;71.70;;;;;;5072874;28;20063;-11
2022/06/15 01:59:20;;;;;;;11.45;7.53;;;19.30;72.90;;;;;;5073517;28;20036;-11
2022/06/15 02:01:53;;;;;;;13.77;9.90;;;19.30;75.50;;;;;;5072930;28;20028;-11
2022/06/15 02:04:28;;;;;;;9.68;8.10;;;19.30;74.40;;;;;;5072648;28;20064;-11
2022/06/15 02:07:06;;;;;;;15.70;8.93;;;19.20;73.20;;;;;;5073095;28;20020;-11
2022/06/15 02:09:45;;;;;;;11.48;8.00;;;19.20;73.20;;;;;;5073293;28;20024;-11
2022/06/15 02:12:13;;;;;;;11.70;7.40;;;19.30;73.20;;;;;;5072753;28;20400;-11
2022/06/15 02:14:44;;;;;;;11.02;7.35;;;19.30;72.80;;;;;;5072713;28;20029;-11
2022/06/15 02:17:36;;;;;;;11.73;8.45;;;19.30;72.60;;;;;;5073124;28;20056;-12
2022/06/15 02:20:17;;;;;;;11.13;7.82;;;19.30;72.70;;;;;;5072893;28;20036;-11
2022/06/15 02:22:45;;;;;;;10.13;7.32;;;19.40;72.50;;;;;;5073195;28;20021;-11
2022/06/15 02:25:18;;;;;;;15.63;10.23;;;19.40;72.40;;;;;;5072473;28;20040;-11
2022/06/15 02:27:45;;;;;;;12.60;7.97;;;19.40;72.30;;;;;;5072917;28;20017;-11
2022/06/15 02:30:16;;;;;;;12.15;8.27;;;19.40;72.30;;;;;;5076751;28;20101;-10
2022/06/15 02:32:45;;;;;;;12.30;8.60;;;19.40;72.30;;;;;;5076484;28;20032;-11
2022/06/15 02:35:13;;;;;;;11.38;8.02;;;19.50;72.70;;;;;;5076618;28;20096;-11
2022/06/15 02:37:39;;;;;;;12.95;8.63;;;19.50;72.40;;;;;;5077476;28;20051;-12
2022/06/15 02:40:06;;;;;;;12.75;7.68;;;19.50;72.50;;;;;;5076315;28;20110;-11
2022/06/15 02:42:35;;;;;;;9.80;8.07;;;19.50;72.30;;;;;;5076380;28;20024;-11
2022/06/15 02:45:26;;;;;;;10.45;8.00;;;19.50;72.10;;;;;;5076385;28;20040;-10
2022/06/15 02:47:52;;;;;;;11.55;8.68;;;19.50;72.20;;;;;;5076474;28;20031;-10
2022/06/15 02:50:22;;;;;;;11.93;8.00;;;19.50;72.20;;;;;;5075684;28;20114;-11
2022/06/15 02:52:56;;;;;;;10.30;8.35;;;19.40;72.20;;;;;;5076019;28;20485;-10
2022/06/15 02:55:25;;;;;;;12.90;8.13;;;19.40;72.50;;;;;;5076549;28;20154;-11
2022/06/15 02:58:02;;;;;;;11.95;8.43;;;19.40;72.70;;;;;;5075917;28;20029;-10
2022/06/15 03:00:28;;;;;;;10.13;7.97;;;19.30;72.50;;;;;;5075822;28;20494;-11
2022/06/15 03:02:54;;;;;;;11.63;7.93;;;19.30;72.50;;;;;;5075871;28;20027;-10
2022/06/15 03:05:20;;;;;;;12.32;10.13;;;19.30;72.40;;;;;;5075807;28;20036;-11
2022/06/15 03:07:46;;;;;;;10.50;7.40;;;19.20;72.60;;;;;;5075747;28;20395;-10
2022/06/15 03:10:12;;;;;;;12.43;8.27;;;19.20;72.60;;;;;;5075728;28;20028;-10
2022/06/15 03:12:38;;;;;;;13.07;8.45;;;19.10;72.60;;;;;;5074232;28;20032;-11
2022/06/15 03:15:05;;;;;;;12.00;8.27;;;19.10;72.70;;;;;;5074313;28;20039;-11
2022/06/15 03:17:31;;;;;;;10.65;8.07;;;19.00;72.60;;;;;;5075509;28;20123;-11
2022/06/15 03:20:00;;;;;;;12.88;8.77;;;19.00;72.60;;;;;;5075569;28;20082;-11
2022/06/15 03:22:26;;;;;;;9.25;7.78;;;18.90;72.80;;;;;;5075343;28;20510;-11
2022/06/15 03:24:52;;;;;;;11.10;7.55;;;18.90;73.00;;;;;;5075625;28;20044;-12
2022/06/15 03:27:18;;;;;;;9.95;7.25;;;18.90;72.80;;;;;;5075756;28;20028;-11
2022/06/15 03:29:47;;;;;;;9.77;7.97;;;18.90;72.80;;;;;;5075378;28;20037;-11
2022/06/15 03:32:15;;;;;;;10.10;7.22;;;18.90;72.70;;;;;;5075333;28;20111;-11
2022/06/15 03:34:42;;;;;;;11.43;7.93;;;18.80;72.70;;;;;;5075542;28;20029;-11
2022/06/15 03:37:09;;;;;;;14.32;8.20;;;18.80;72.60;;;;;;5075648;28;20024;-10
2022/06/15 03:39:36;;;;;;;9.52;7.20;;;18.80;72.60;;;;;;5075204;28;20032;-12
2022/06/15 03:42:17;;;;;;;12.40;8.10;;;18.80;72.50;;;;;;5075156;28;20032;-11
2022/06/15 03:44:44;;;;;;;11.30;8.50;;;18.70;72.70;;;;;;5075347;28;20032;-11
2022/06/15 03:47:17;;;;;;;11.10;7.22;;;18.70;72.90;;;;;;5075652;28;20361;-10
2022/06/15 03:49:48;;;;;;;9.55;7.00;;;18.70;72.70;;;;;;5075102;28;20052;-11
2022/06/15 03:52:20;;;;;;;11.73;8.60;;;18.70;72.70;;;;;;5074805;28;20127;-13
2022/06/15 03:54:46;;;;;;;10.10;7.40;;;18.70;72.70;;;;;;5075065;28;20441;-10
2022/06/15 03:57:15;;;;;;;8.30;7.32;;;18.70;72.80;;;;;;5075271;28;20029;-10
2022/06/15 03:59:42;;;;;;;9.15;6.75;;;18.80;72.70;;;;;;5073534;28;20507;-11
2022/06/15 04:02:09;;;;;;;11.68;6.90;;;18.80;72.50;;;;;;5075270;28;20036;-11
2022/06/15 04:04:35;;;;;;;11.45;8.18;;;18.90;72.30;;;;;;5074688;28;20029;-11
2022/06/15 04:07:02;;;;;;;12.15;8.27;;;18.90;72.30;;;;;;5074953;28;20024;-11
2022/06/15 04:09:29;;;;;;;11.70;7.15;;;18.90;72.30;;;;;;5074341;28;20033;-11
2022/06/15 04:11:58;;;;;;;10.55;8.20;;;19.00;72.20;;;;;;5074837;28;20035;-11
2022/06/15 04:14:28;;;;;;;9.95;7.70;;;19.00;72.50;;;;;;5074624;28;20427;-11
2022/06/15 04:16:54;;;;;;;9.77;8.27;;;19.10;72.50;;;;;;5074333;28;20535;-11
2022/06/15 04:19:26;;;;;;;10.23;7.63;;;19.20;73.10;;;;;;5074434;28;20074;-10
2022/06/15 04:21:53;;;;;;;10.05;6.82;;;19.20;73.00;;;;;;5074412;28;20020;-11
2022/06/15 04:24:21;;;;;;;11.82;7.93;;;19.20;72.60;;;;;;5073941;28;20029;-11
2022/06/15 04:26:49;;;;;;;9.77;7.03;;;19.30;72.70;;;;;;5074528;28;20039;-11
2022/06/15 04:29:16;;;;;;;9.13;6.75;;;19.30;72.50;;;;;;5074504;28;20032;-11
2022/06/15 04:31:42;;;;;;;10.90;7.18;;;19.30;72.40;;;;;;5074116;28;20396;-10
2022/06/15 04:34:09;;;;;;;8.52;6.07;;;19.40;72.30;;;;;;5072866;28;20100;-11
2022/06/15 04:36:37;;;;;;;8.52;6.25;;;19.40;72.30;;;;;;5073960;28;20019;-11
2022/06/15 04:39:06;;;;;;;12.13;8.60;;;19.40;72.00;;;;;;5074801;28;20108;-11
2022/06/15 04:41:36;;;;;;;21.48;13.68;;;19.40;71.90;;;;;;5074189;28;20097;-11
2022/06/15 04:44:05;;;;;;;15.07;9.82;;;19.50;72.00;;;;;;5073881;28;20056;-11
2022/06/15 04:46:32;;;;;;;16.00;10.38;;;19.60;72.10;;;;;;5073571;28;20484;-11
2022/06/15 04:48:58;;;;;;;10.10;8.48;;;19.60;72.00;;;;;;5073766;28;20028;-11
2022/06/15 04:51:27;;;;;;;18.45;11.25;;;19.70;72.30;;;;;;5073139;28;20194;-11
2022/06/15 04:53:54;;;;;;;16.58;10.75;;;19.80;72.90;;;;;;5073730;28;20032;-11
2022/06/15 04:56:22;;;;;;;10.20;7.65;;;19.90;73.20;;;;;;5073652;28;20056;-10
2022/06/15 04:58:48;;;;;;;12.35;9.48;;;19.90;72.00;;;;;;5073663;28;20405;-11
2022/06/15 05:01:15;;;;;;;12.82;9.52;;;20.10;72.50;;;;;;5073576;28;20032;-12
2022/06/15 05:03:41;;;;;;;20.67;12.52;;;20.20;72.90;;;;;;5073529;28;20549;-11
2022/06/15 05:06:32;;;;;;;12.85;9.55;;;20.30;73.10;;;;;;5073807;28;20064;-12
2022/06/15 05:08:58;;;;;;;13.07;10.25;;;20.40;73.70;;;;;;5074006;28;20036;-11
2022/06/15 05:11:26;;;;;;;14.15;10.88;;;20.50;72.30;;;;;;5073702;28;20040;-11
2022/06/15 05:13:53;;;;;;;15.77;11.18;;;20.60;71.60;;;;;;5073410;28;20055;-11
2022/06/15 05:16:19;;;;;;;16.42;12.65;;;20.80;71.20;;;;;;5073487;28;20028;-11
2022/06/15 05:18:46;;;;;;;14.15;12.05;;;20.80;71.00;;;;;;5073636;28;20103;-11
2022/06/15 05:21:13;;;;;;;13.38;10.27;;;20.90;70.70;;;;;;5073638;28;20158;-11
2022/06/15 05:23:39;;;;;;;15.68;11.57;;;20.90;71.30;;;;;;5073604;28;20025;-11
2022/06/15 05:26:05;;;;;;;13.30;9.35;;;21.10;70.80;;;;;;5071857;28;20051;-10
2022/06/15 05:28:31;;;;;;;11.70;8.40;;;21.20;70.80;;;;;;5073336;28;20078;-11
2022/06/15 05:31:19;;;;;;;13.40;10.30;;;21.40;70.20;;;;;;5073455;28;20021;-11
2022/06/15 05:33:46;;;;;;;12.93;9.20;;;21.50;70.10;;;;;;5073228;28;20434;-11
2022/06/15 05:36:14;;;;;;;15.95;11.38;;;21.60;69.70;;;;;;5073772;28;20017;-11
2022/06/15 05:38:40;;;;;;;14.68;8.90;;;21.80;69.80;;;;;;5073081;28;20103;-11
2022/06/15 05:41:07;;;;;;;14.32;10.60;;;21.90;69.00;;;;;;5073226;28;20025;-11
2022/06/15 05:43:38;;;;;;;17.08;11.73;;;22.10;68.80;;;;;;5073056;28;20042;-11
2022/06/15 05:46:30;;;;;;;13.13;8.48;;;22.30;68.60;;;;;;5073001;28;20606;-11
2022/06/15 05:49:01;;;;;;;12.40;9.27;;;22.40;68.20;;;;;;5073326;28;20496;-11
2022/06/15 05:51:28;;;;;;;17.45;11.70;;;22.50;67.70;;;;;;5072879;28;20056;-10
2022/06/15 05:53:54;;;;;;;13.15;10.57;;;22.70;67.80;;;;;;5073165;28;20420;-11
2022/06/15 05:56:22;;;;;;;11.25;7.72;;;22.80;66.70;;;;;;5072977;28;20078;-11
2022/06/15 05:58:49;;;;;;;11.98;9.10;;;22.90;66.30;;;;;;5072877;28;20031;-10
2022/06/15 06:01:24;;;;;;;14.05;9.43;;;23.10;65.90;;;;;;5073661;28;20041;-10
2022/06/15 06:03:51;;;;;;;13.88;9.85;;;23.30;65.30;;;;;;5076323;28;20029;-10
2022/06/15 06:06:17;;;;;;;12.07;7.80;;;23.40;64.50;;;;;;5076861;28;20480;-10
2022/06/15 06:08:43;;;;;;;11.45;7.45;;;23.60;64.40;;;;;;5076935;28;20033;-10
2022/06/15 06:11:09;;;;;;;10.85;7.88;;;23.80;63.90;;;;;;5077101;28;20021;-10
2022/06/15 06:13:36;;;;;;;15.10;10.15;;;24.00;63.60;;;;;;5076911;28;20362;-11
2022/06/15 06:16:02;;;;;;;10.40;7.80;;;24.20;62.60;;;;;;5077053;28;20074;-10
2022/06/15 06:18:28;;;;;;;16.20;9.80;;;24.30;62.40;;;;;;5076605;28;20419;-11
2022/06/15 06:20:54;;;;;;;14.43;8.85;;;24.40;62.50;;;;;;5076628;28;20040;-9
2022/06/15 06:23:20;;;;;;;14.00;8.07;;;24.50;61.80;;;;;;5076922;28;20028;-11
2022/06/15 06:25:50;;;;;;;12.02;7.82;;;24.60;61.50;;;;;;5076599;28;20511;-11
2022/06/15 06:28:41;;;;;;;19.48;9.77;;;24.80;60.90;;;;;;5076444;28;20028;-11
2022/06/15 06:31:10;;;;;;;15.25;9.50;;;24.90;59.60;;;;;;5076457;28;20024;-10
2022/06/15 06:33:37;;;;;;;9.65;6.68;;;25.10;59.00;;;;;;5076419;28;20103;-10
2022/06/15 06:36:12;;;;;;;14.05;8.25;;;25.30;59.50;;;;;;5076483;28;20020;-11
2022/06/15 06:38:38;;;;;;;15.38;8.07;;;25.40;59.10;;;;;;5076211;28;20111;-11
2022/06/15 06:41:05;;;;;;;9.95;6.68;;;25.40;57.10;;;;;;5076782;28;20100;-11
2022/06/15 06:43:31;;;;;;;9.77;6.30;;;25.50;56.50;;;;;;5076520;28;20118;-11
2022/06/15 06:45:58;;;;;;;11.13;7.18;;;25.70;56.80;;;;;;5076705;28;20036;-10
2022/06/15 06:48:24;;;;;;;10.98;6.80;;;25.80;56.50;;;;;;5076209;28;20025;-10
2022/06/15 06:50:52;;;;;;;9.63;6.47;;;25.90;56.30;;;;;;5075841;28;20151;-10
2022/06/15 06:53:19;;;;;;;9.80;6.20;;;25.90;55.30;;;;;;5076812;28;20029;-11
2022/06/15 06:55:48;;;;;;;9.27;6.72;;;26.00;55.40;;;;;;5076224;28;20103;-10
2022/06/15 06:58:14;;;;;;;11.55;6.25;;;26.20;54.60;;;;;;5075690;28;20074;-14
2022/06/15 07:00:40;;;;;;;7.43;5.45;;;26.30;54.70;;;;;;5075898;28;20032;-11
2022/06/15 07:03:06;;;;;;;10.15;7.70;;;26.40;54.70;;;;;;5075893;28;20035;-10
2022/06/15 07:05:34;;;;;;;11.63;6.53;;;26.50;53.70;;;;;;5076079;28;20032;-11
2022/06/15 07:08:00;;;;;;;7.43;4.90;;;26.60;53.90;;;;;;5076638;28;20086;-10
2022/06/15 07:10:26;;;;;;;8.15;5.13;;;26.70;53.10;;;;;;5075560;28;20033;-10
2022/06/15 07:12:54;;;;;;;9.10;4.93;;;26.80;52.60;;;;;;5075128;28;20481;-11
2022/06/15 07:15:21;;;;;;;7.60;5.47;;;26.90;52.70;;;;;;5075985;28;20032;-10
2022/06/15 07:17:47;;;;;;;8.75;5.63;;;27.10;53.10;;;;;;5075916;28;20102;-11
2022/06/15 07:20:13;;;;;;;8.63;5.38;;;27.30;52.80;;;;;;5075915;28;20032;-10
2022/06/15 07:22:39;;;;;;;9.18;5.10;;;27.30;52.60;;;;;;5075542;28;20028;-10
2022/06/15 07:25:08;;;;;;;9.45;4.80;;;27.40;51.60;;;;;;5075643;28;20028;-10
2022/06/15 07:27:36;;;;;;;7.38;3.80;;;27.50;51.30;;;;;;5075799;28;20037;-10
2022/06/15 07:30:05;;;;;;;6.30;3.97;;;27.60;51.00;;;;;;5075679;28;20067;-10
2022/06/15 07:32:32;;;;;;;6.47;3.85;;;27.80;50.70;;;;;;5075058;28;20035;-11
2022/06/15 07:34:58;;;;;;;6.45;3.58;;;27.90;50.30;;;;;;5075316;28;20516;-11
2022/06/15 07:37:24;;;;;;;4.95;3.42;;;28.00;48.60;;;;;;5075278;28;20388;-10
2022/06/15 07:39:50;;;;;;;7.63;3.80;;;28.30;47.10;;;;;;5075147;28;20032;-10
2022/06/15 07:42:16;;;;;;;3.95;2.60;;;28.50;46.70;;;;;;5073798;28;20020;-11
2022/06/15 07:44:42;;;;;;;4.78;3.05;;;28.60;46.60;;;;;;5075357;28;20033;-10
2022/06/15 07:49:54;;;;;;;8.27;3.78;;;29.00;46.00;;;;;;5075189;28;20103;-10
2022/06/15 07:52:25;;;;;;;6.85;3.80;;;29.20;45.30;;;;;;5075031;28;20035;-11
2022/06/15 07:54:51;;;;;;;6.25;3.75;;;29.40;44.50;;;;;;5075199;28;20033;-10
2022/06/15 07:57:17;;;;;;;5.82;3.10;;;29.40;44.80;;;;;;5074914;28;20024;-10
2022/06/15 07:59:44;;;;;;;4.70;3.08;;;29.40;44.10;;;;;;5074843;28;20024;-10
2022/06/15 08:02:10;;;;;;;5.03;2.78;;;29.50;43.80;;;;;;5074772;28;20024;-10
2022/06/15 08:04:36;;;;;;;4.75;2.83;;;29.70;43.40;;;;;;5074480;28;20032;-10
2022/06/15 08:07:04;;;;;;;5.05;2.92;;;29.90;42.50;;;;;;5074621;28;20028;-10
2022/06/15 08:09:30;;;;;;;3.05;2.50;;;30.00;42.30;;;;;;5074925;28;20032;-10
2022/06/15 08:12:11;;;;;;;4.25;2.65;;;30.20;42.20;;;;;;5074761;28;20021;-10
2022/06/15 08:14:43;;;;;;;4.55;2.75;;;30.20;41.70;;;;;;5074336;28;20028;-10
2022/06/15 08:17:20;;;;;;;6.75;3.05;;;30.50;41.40;;;;;;5074879;28;20023;-10
2022/06/15 08:19:50;;;;;;;5.25;3.17;;;30.80;40.80;;;;;;5074797;28;20060;-11
2022/06/15 08:22:17;;;;;;;4.10;3.13;;;31.20;39.90;;;;;;5073016;28;20025;-10
2022/06/15 08:24:45;;;;;;;4.50;3.20;;;31.40;39.50;;;;;;5073343;28;20388;-10
2022/06/15 08:27:13;;;;;;;5.65;2.95;;;31.70;39.20;;;;;;5074122;28;20031;-10
2022/06/15 08:29:41;;;;;;;4.90;3.42;;;31.90;38.00;;;;;;5072978;28;20119;-11
2022/06/15 08:32:08;;;;;;;6.78;3.40;;;32.00;37.60;;;;;;5074144;28;20095;-10
2022/06/15 08:34:37;;;;;;;6.78;3.80;;;32.20;37.50;;;;;;5073926;28;20451;-11
2022/06/15 08:37:08;;;;;;;3.53;2.70;;;32.10;37.70;;;;;;5074245;28;20093;-10
2022/06/15 08:39:35;;;;;;;6.03;2.53;;;31.90;38.30;;;;;;5074619;28;20055;-10
2022/06/15 08:42:05;;;;;;;5.95;2.90;;;31.70;38.90;;;;;;5073967;28;20039;-11
2022/06/15 08:45:08;;;;;;;6.60;2.90;;;31.90;37.80;;;;;;5073643;28;20030;-11
2022/06/15 08:47:49;;;;;;;3.73;2.70;;;32.20;36.50;;;;;;5073850;28;20480;-11
2022/06/15 08:50:39;;;;;;;4.15;2.80;;;32.40;37.40;;;;;;5073851;28;20053;-11
2022/06/15 08:53:17;;;;;;;3.38;2.50;;;32.70;36.90;;;;;;5073833;28;20431;-11
2022/06/15 08:55:46;;;;;;;3.63;2.65;;;32.90;36.10;;;;;;5074053;28;20052;-10
2022/06/15 08:58:25;;;;;;;5.47;2.90;;;33.10;36.20;;;;;;5073690;28;20060;-10
2022/06/15 09:00:57;;;;;;;3.47;2.70;;;33.40;36.10;;;;;;5073696;28;20029;-10
2022/06/15 09:04:03;;;;;;;6.40;3.08;;;33.60;35.00;;;;;;5073669;28;20023;-11
2022/06/15 09:06:48;;;;;;;3.88;2.80;;;33.70;34.70;;;;;;5021350;28;20047;-10
2022/06/15 09:09:26;;;;;;;3.78;2.97;;;33.70;34.90;;;;;;5073710;28;20099;-10
2022/06/15 09:15:22;;;;;;;4.40;2.92;;;33.70;35.40;;;;;;5073766;28;20537;-10
2022/06/15 09:17:52;;;;;;;5.00;3.03;;;33.90;35.10;;;;;;5073684;28;20028;-11
2022/06/15 09:20:25;;;;;;;7.35;3.10;;;34.10;34.70;;;;;;5073236;28;20028;-10
2022/06/15 09:23:23;;;;;;;5.13;3.20;;;34.40;34.10;;;;;;5073644;28;20032;-10
2022/06/15 09:26:10;;;;;;;5.30;3.10;;;34.60;34.10;;;;;;5073507;28;20108;-11
2022/06/15 09:28:43;;;;;;;4.30;2.95;;;34.70;33.90;;;;;;5073111;28;20029;-11
2022/06/15 09:31:16;;;;;;;;;;;34.60;34.40;;;;;;5073975;28;20078;-11
2022/06/15 09:33:51;;;;;;;4.18;2.95;;;34.80;34.80;;;;;;5073230;28;19915;-11
2022/06/15 09:36:26;;;;;;;4.63;2.75;;;34.90;34.40;;;;;;5073420;28;20025;-12
2022/06/15 09:38:52;;;;;;;3.17;2.70;;;34.90;34.00;;;;;;5073144;28;20621;-11
2022/06/15 09:41:52;;;;;;;6.72;2.70;;;35.00;34.50;;;;;;5073012;28;20060;-10
2022/06/15 09:44:46;;;;;;;3.25;2.70;;;35.30;34.10;;;;;;5050924;28;20131;-11
2022/06/15 09:47:41;;;;;;;5.30;2.90;;;35.70;33.50;;;;;;5050945;28;20037;-10
2022/06/15 09:50:20;;;;;;;6.65;3.00;;;36.10;32.00;;;;;;5034051;28;20072;-11
2022/06/15 09:53:04;;;;;;;4.20;2.90;;;36.40;31.70;;;;;;5051804;28;20052;-11
2022/06/15 09:55:46;;;;;;;4.85;3.00;;;36.50;30.90;;;;;;5051420;28;20032;-11
2022/06/15 09:58:18;;;;;;;4.73;2.87;;;36.60;31.40;;;;;;5050932;28;20029;-11
2022/06/15 10:00:47;;;;;;;3.40;2.60;;;36.80;31.40;;;;;;5051200;28;20362;-10
2022/06/15 10:03:26;;;;;;;5.75;2.90;;;36.80;31.00;;;;;;5050830;28;20064;-10
2022/06/15 10:05:56;;;;;;;3.03;2.53;;;36.90;30.60;;;;;;5050896;28;20025;-11
2022/06/15 10:08:22;;;;;;;5.18;3.10;;;37.00;31.50;;;;;;5050763;28;20037;-10
2022/06/15 10:10:56;;;;;;;3.45;2.80;;;37.30;31.50;;;;;;5050653;28;20171;-10
2022/06/15 10:13:27;;;;;;;6.22;3.00;;;37.20;31.00;;;;;;5050745;28;20075;-10
2022/06/15 10:16:16;;;;;;;7.65;3.80;;;37.00;31.60;;;;;;5050771;28;20036;-10
2022/06/15 10:18:49;;;;;;;7.97;2.90;;;37.10;31.80;;;;;;5051154;28;20027;-11
2022/06/15 10:21:14;;;;;;;4.45;2.80;;;37.30;31.40;;;;;;5067541;28;20033;-9
2022/06/15 10:24:04;;;;;;;6.78;3.08;;;37.40;31.70;;;;;;5072714;28;20024;-10
2022/06/15 10:26:44;;;;;;;4.38;2.70;;;37.30;31.10;;;;;;5072244;28;20096;-11
2022/06/15 10:29:16;;;;;;;7.88;3.10;;;37.20;31.30;;;;;;5073138;28;20473;-10
2022/06/15 10:31:56;;;;;;;3.33;2.80;;;37.10;30.40;;;;;;5072961;28;20157;-11
2022/06/15 10:34:28;;;;;;;4.47;3.35;;;36.90;31.10;;;;;;5072734;28;20255;-11
2022/06/15 10:36:57;;;;;;;5.65;3.15;;;36.90;31.40;;;;;;5072962;28;20027;-9
2022/06/15 10:39:27;;;;;;;4.10;3.10;;;36.90;31.40;;;;;;5073150;28;20025;-9
2022/06/15 10:42:08;;;;;;;4.72;3.22;;;37.10;31.40;;;;;;5072489;28;20017;-11
2022/06/15 10:44:57;;;;;;;5.03;3.38;;;37.50;31.10;;;;;;5072274;28;20487;-10
2022/06/15 10:47:29;;;;;;;5.03;2.83;;;37.90;30.30;;;;;;5072557;28;20021;-10
2022/06/15 10:50:00;;;;;;;4.28;3.20;;;38.20;31.00;;;;;;5075426;28;20056;-11
2022/06/15 10:52:44;;;;;;;3.22;2.67;;;38.50;30.30;;;;;;5076019;28;20024;-10
2022/06/15 11:04:46;;;;;;;4.72;3.20;;;39.50;29.20;;;;;;5076065;28;20434;-10
2022/06/15 11:07:25;;;;;;;4.27;3.20;;;39.70;29.10;;;;;;5072931;28;20032;-11
2022/06/15 11:09:54;;;;;;;6.97;3.30;;;39.60;29.70;;;;;;5076031;28;20032;-11
2022/06/15 11:12:40;;;;;;;5.45;3.15;;;39.40;30.30;;;;;;5075471;28;20488;-11
2022/06/15 11:15:24;;;;;;;3.70;2.80;;;39.60;29.70;;;;;;5075738;28;20024;-11
2022/06/15 11:18:06;;;;;;;5.78;2.88;;;40.00;30.00;;;;;;5076030;28;20025;-11
2022/06/15 11:21:09;;;;;;;4.13;3.38;;;40.20;29.20;;;;;;5075272;28;20462;-11
2022/06/15 11:23:35;;;;;;;4.75;3.35;;;40.50;28.20;;;;;;5075854;28;20068;-11
2022/06/15 11:26:52;;;;;;;4.07;2.97;;;40.60;28.90;;;;;;5075314;28;20071;-10
2022/06/15 11:28:56;;;;;;;5.05;3.35;;;40.70;28.70;;;;;;5075537;28;20392;-11
2022/06/15 11:31:26;;;;;;;5.78;2.97;;;40.50;28.60;;;;;;5075371;28;20028;-12
2022/06/15 11:34:06;;;;;;;4.88;3.13;;;40.40;29.10;;;;;;5075723;28;20024;-11
2022/06/15 11:36:42;;;;;;;5.57;3.38;;;40.40;29.30;;;;;;5075175;28;20020;-11
2022/06/15 11:39:11;;;;;;;5.68;2.88;;;40.50;28.90;;;;;;5075331;28;20024;-11
2022/06/15 11:41:47;;;;;;;3.67;2.60;;;40.40;29.30;;;;;;5075325;28;20028;-10
2022/06/15 11:44:27;;;;;;;4.82;2.83;;;40.70;29.50;;;;;;5075534;28;20411;-10
2022/06/15 11:47:08;;;;;;;4.50;3.38;;;41.00;29.10;;;;;;5075415;28;20060;-10
2022/06/15 11:49:44;;;;;;;4.32;2.92;;;40.90;29.20;;;;;;5074866;28;20108;-10
2022/06/15 11:52:25;;;;;;;3.47;3.05;;;41.10;29.00;;;;;;5075029;28;20043;-11
2022/06/15 11:55:52;;;;;;;4.55;3.17;;;41.50;27.70;;;;;;5075022;28;20078;-11
2022/06/15 11:58:39;;;;;;;6.22;3.20;;;41.40;27.50;;;;;;4986456;28;20116;-11
2022/06/15 12:01:23;;;;;;;3.58;2.80;;;40.70;28.20;;;;;;4977127;28;20081;-11
2022/06/15 12:04:12;;;;;;;4.13;2.83;;;40.50;29.20;;;;;;4993466;28;20449;-10
2022/06/15 12:06:56;;;;;;;3.13;2.63;;;40.80;28.20;;;;;;4993254;28;20118;-11
2022/06/15 12:09:29;;;;;;;2.88;2.63;;;40.50;28.30;;;;;;4993824;28;20033;-11
2022/06/15 12:15:13;;;;;;;4.28;2.80;;;39.60;29.30;;;;;;4993552;28;20049;-11
2022/06/15 12:17:54;;;;;;;3.38;2.90;;;39.30;30.00;;;;;;4993293;28;20038;-11
2022/06/15 12:20:38;;;;;;;3.07;2.70;;;39.10;30.80;;;;;;4993000;28;20029;-10
2022/06/15 12:23:31;;;;;;;4.38;2.78;;;38.90;31.20;;;;;;4993089;28;20037;-11
2022/06/15 12:26:05;;;;;;;5.05;2.60;;;38.90;31.20;;;;;;4993053;28;20474;-12
2022/06/15 12:28:38;;;;;;;5.15;2.78;;;38.40;31.70;;;;;;4993082;28;20042;-11
2022/06/15 12:31:11;;;;;;;4.30;2.70;;;38.80;31.30;;;;;;4993021;28;20026;-11
2022/06/15 12:33:49;;;;;;;6.88;2.65;;;39.00;30.90;;;;;;4997761;28;20052;-11
2022/06/15 12:36:36;;;;;;;3.80;2.70;;;39.20;30.90;;;;;;5074254;28;20078;-11
2022/06/15 12:39:24;;;;;;;4.68;2.80;;;38.70;31.10;;;;;;5074404;28;20437;-11
2022/06/15 12:44:57;;;;;;;5.55;2.55;;;39.10;30.80;;;;;;5074143;28;20044;-12
2022/06/15 12:47:27;;;;;;;5.40;2.83;;;39.30;30.60;;;;;;5074293;28;20093;-11
2022/06/15 12:50:04;;;;;;;4.93;3.00;;;39.50;30.60;;;;;;5074137;28;20510;-11
2022/06/15 12:52:49;;;;;;;3.88;2.80;;;39.70;30.60;;;;;;5073978;28;20073;-11
2022/06/15 12:55:45;;;;;;;4.13;3.00;;;39.80;30.40;;;;;;5073709;28;20085;-11
2022/06/15 12:58:51;;;;;;;5.28;2.88;;;40.10;29.80;;;;;;5074046;28;20056;-12
2022/06/15 13:01:39;;;;;;;4.13;2.88;;;40.30;29.70;;;;;;5062635;28;20044;-11
2022/06/15 13:04:29;;;;;;;4.85;2.70;;;40.20;30.10;;;;;;5073997;28;20100;-11
2022/06/15 13:07:18;;;;;;;3.85;2.90;;;40.10;30.40;;;;;;5062765;28;20186;-11
2022/06/15 13:10:06;;;;;;;5.00;2.85;;;40.20;30.10;;;;;;5074118;28;20035;-11
2022/06/15 13:13:12;;;;;;;5.75;2.97;;;40.20;29.80;;;;;;5072903;28;20032;-11
2022/06/15 13:16:07;;;;;;;3.58;2.70;;;40.00;30.40;;;;;;5051520;28;20029;-11
2022/06/15 13:18:48;;;;;;;4.28;2.83;;;40.00;30.30;;;;;;5051325;28;20111;-11
2022/06/15 13:21:20;;;;;;;3.80;3.05;;;40.00;30.70;;;;;;5051359;28;20067;-10
2022/06/15 13:24:02;;;;;;;5.93;2.90;;;40.20;29.80;;;;;;5051465;28;20033;-11
2022/06/15 13:26:37;;;;;;;;;;;40.10;29.80;;;;;;5051455;28;20029;-11
2022/06/15 13:29:06;;;;;;;3.42;3.00;;;39.20;31.20;;;;;;5051127;28;19943;-11
2022/06/15 13:31:44;;;;;;;4.78;2.78;;;39.30;31.10;;;;;;5051184;28;20039;-11
2022/06/15 13:34:34;;;;;;;5.00;2.97;;;39.40;31.00;;;;;;5051164;28;20033;-12
2022/06/15 13:37:22;;;;;;;6.07;2.80;;;39.40;30.70;;;;;;5051228;28;20106;-11
2022/06/15 13:39:58;;;;;;;4.85;3.20;;;39.50;30.30;;;;;;5051169;28;20032;-12